createdAt,value
2018-04-24T00:08:27.997Z,1008.65
2018-04-24T00:18:27.653Z,1008.49
2018-04-24T00:28:27.752Z,1008.33
2018-04-24T00:38:27.670Z,1008.4
2018-04-24T00:48:27.676Z,1008.03
2018-04-24T00:58:27.736Z,1007.97
2018-04-24T01:08:27.786Z,1007.92
2018-04-24T01:18:34.838Z,1007.93
2018-04-24T01:28:30.743Z,1007.99
2018-04-24T01:38:27.726Z,1007.96
2018-04-24T01:48:27.759Z,1007.72
2018-04-24T01:58:28.111Z,1007.85
2018-04-24T02:08:27.761Z,1007.77
2018-04-24T02:18:27.763Z,1007.71
2018-04-24T02:28:27.766Z,1007.89
2018-04-24T02:38:27.780Z,1008
2018-04-24T02:48:27.821Z,1007.7
2018-04-24T02:58:27.812Z,1007.62
2018-04-24T03:08:27.850Z,1007.54
2018-04-24T03:18:27.840Z,1007.61
2018-04-24T03:28:27.814Z,1007.68
2018-04-24T03:38:27.932Z,1007.66
2018-04-24T03:48:27.822Z,1007.5
2018-04-24T03:58:27.840Z,1007.61
2018-04-24T04:08:27.854Z,1007.68
2018-04-24T04:18:27.886Z,1007.64
2018-04-24T04:28:27.891Z,1007.7
2018-04-24T04:38:27.859Z,1007.5
2018-04-24T04:48:27.965Z,1007.66
2018-04-24T04:58:27.882Z,1007.75
2018-04-24T05:08:27.898Z,1007.97
2018-04-24T05:18:27.905Z,1008
2018-04-24T05:28:28.013Z,1008.02
2018-04-24T05:38:27.973Z,1008.16
2018-04-24T05:48:27.940Z,1008.12
2018-04-24T05:58:28.000Z,1008.12
2018-04-24T06:08:28.040Z,1008.06
2018-04-24T06:18:28.034Z,1007.9
2018-04-24T06:28:28.053Z,1007.73
2018-04-24T06:38:28.000Z,1007.77
2018-04-24T06:48:28.110Z,1007.96
2018-04-24T06:58:27.993Z,1008.09
2018-04-24T07:08:28.027Z,1008.2
2018-04-24T07:18:28.030Z,1008.08
2018-04-24T07:28:28.238Z,1008.33
2018-04-24T07:38:28.014Z,1008.37
2018-04-24T07:48:28.271Z,1008.36
2018-04-24T07:58:28.075Z,1008.49
2018-04-24T08:08:28.084Z,1008.64
2018-04-24T08:18:28.111Z,1008.58
2018-04-24T08:28:28.077Z,1008.65
2018-04-24T08:38:28.094Z,1008.75
2018-04-24T08:48:28.664Z,1008.79
2018-04-24T08:58:28.236Z,1008.75
2018-04-24T09:08:28.187Z,1008.69
2018-04-24T09:18:28.213Z,1008.6
2018-04-24T09:28:28.123Z,1008.63
2018-04-24T09:38:28.150Z,1008.68
2018-04-24T09:48:28.161Z,1008.91
2018-04-24T09:58:28.159Z,1008.98
2018-04-24T10:08:28.236Z,1008.88
2018-04-24T10:18:28.198Z,1008.94
2018-04-24T10:28:28.201Z,1008.97
2018-04-24T10:38:28.205Z,1008.72
2018-04-24T10:48:28.237Z,1008.74
2018-04-24T10:58:28.256Z,1008.65
2018-04-24T11:08:28.241Z,1008.55
2018-04-24T11:18:28.237Z,1008.69
2018-04-24T11:28:28.285Z,1008.72
2018-04-24T11:38:28.286Z,1008.68
2018-04-24T11:48:28.285Z,1008.81
2018-04-24T11:58:28.299Z,1008.83
2018-04-24T12:08:28.487Z,1008.91
2018-04-24T12:18:28.429Z,1008.88
2018-04-24T12:28:28.324Z,1008.8
2018-04-24T12:38:28.331Z,1008.79
2018-04-24T12:48:28.347Z,1008.62
2018-04-24T12:58:28.360Z,1008.74
2018-04-24T13:08:28.374Z,1008.6
2018-04-24T13:18:28.453Z,1008.52
2018-04-24T13:28:28.400Z,1008.54
2018-04-24T13:38:28.394Z,1008.53
2018-04-24T13:48:28.453Z,1008.39
2018-04-24T13:58:28.431Z,1008.22
2018-04-24T14:08:28.459Z,1008.04
2018-04-24T14:18:28.477Z,1008.11
2018-04-24T14:28:28.503Z,1007.94
2018-04-24T14:38:28.548Z,1007.81
2018-04-24T14:48:28.611Z,1007.75
2018-04-24T14:58:28.479Z,1007.67
2018-04-24T15:08:28.494Z,1007.45
2018-04-24T15:18:28.487Z,1007.46
2018-04-24T15:28:28.550Z,1007.26
2018-04-24T15:38:28.623Z,1007.3
2018-04-24T15:48:28.567Z,1007.27
2018-04-24T15:58:28.638Z,1007.28
2018-04-24T16:08:28.537Z,1007.15
2018-04-24T16:18:28.548Z,1006.96
2018-04-24T16:28:28.598Z,1006.99
2018-04-24T16:38:28.581Z,1006.89
2018-04-24T16:48:28.684Z,1006.8
2018-04-24T16:58:28.591Z,1006.61
2018-04-24T17:08:28.621Z,1006.55
2018-04-24T17:18:28.663Z,1006.43
2018-04-24T17:28:28.652Z,1006.2
2018-04-24T17:38:29.030Z,1006.12
2018-04-24T17:48:28.710Z,1006.05
2018-04-24T17:58:28.685Z,1005.91
2018-04-24T18:08:28.706Z,1005.88
2018-04-24T18:18:28.662Z,1005.79
2018-04-24T18:28:28.746Z,1005.61
2018-04-24T18:38:28.687Z,1005.48
2018-04-24T18:48:28.715Z,1005.24
2018-04-24T18:58:28.702Z,1005.23
2018-04-24T19:08:28.788Z,1005.19
2018-04-24T19:18:30.382Z,1005.04
2018-04-24T19:28:28.734Z,1005.02
2018-04-24T19:38:28.748Z,1004.98
2018-04-24T19:48:28.756Z,1004.93
2018-04-24T19:58:28.762Z,1004.87
2018-04-24T20:08:28.774Z,1004.77
2018-04-24T20:18:28.895Z,1004.48
2018-04-24T20:28:28.832Z,1004.51
2018-04-24T20:38:28.811Z,1004.43
2018-04-24T20:48:28.786Z,1004.25
2018-04-24T20:58:28.829Z,1004.15
2018-04-24T21:08:28.902Z,1003.98
2018-04-24T21:18:28.844Z,1003.82
2018-04-24T21:28:28.870Z,1003.66
2018-04-24T21:38:28.864Z,1003.63
2018-04-24T21:48:28.865Z,1003.35
2018-04-24T21:58:28.944Z,1003.23
2018-04-24T22:08:28.917Z,1003.03
2018-04-24T22:18:29.025Z,1002.67
2018-04-24T22:28:28.879Z,1002.55
2018-04-24T22:38:28.901Z,1002.33
2018-04-24T22:48:29.144Z,1002.16
2018-04-24T22:58:29.018Z,1002.09
2018-04-24T23:08:28.920Z,1002.03
2018-04-24T23:18:28.941Z,1001.9
2018-04-24T23:28:28.940Z,1001.8
2018-04-24T23:38:28.958Z,1001.41
2018-04-24T23:48:29.016Z,1001.29
2018-04-24T23:58:28.980Z,1001.13
